sensor_id;sensor_type;location;lat;lon;timestamp;temperature;humidity
17984;DHT22;9117;52.420;20.728;2023-01-05T00:02:13;7.80;1.00
17984;DHT22;9117;52.420;20.728;2023-01-05T00:04:51;7.80;1.00
17984;DHT22;9117;52.420;20.728;2023-01-05T00:07:19;7.90;1.00
17984;DHT22;9117;52.420;20.728;2023-01-05T00:09:47;7.90;1.00
17984;DHT22;9117;52.420;20.728;2023-01-05T00:12:15;7.90;1.00
17984;DHT22;9117;52.420;20.728;2023-01-05T00:15:01;8.00;1.00
17984;DHT22;9117;52.420;20.728;2023-01-05T00:17:46;8.00;1.00
17984;DHT22;9117;52.420;20.728;2023-01-05T00:20:32;8.00;1.00
17984;DHT22;9117;52.420;20.728;2023-01-05T00:23:18;8.00;1.00
17984;DHT22;9117;52.420;20.728;2023-01-05T00:25:47;8.00;1.00
17984;DHT22;9117;52.420;20.728;2023-01-05T00:28:15;8.10;1.00
17984;DHT22;9117;52.420;20.728;2023-01-05T00:30:44;8.10;1.00
17984;DHT22;9117;52.420;20.728;2023-01-05T00:33:14;8.10;1.00
17984;DHT22;9117;52.420;20.728;2023-01-05T00:35:44;8.10;1.00
17984;DHT22;9117;52.420;20.728;2023-01-05T00:38:12;8.10;1.00
17984;DHT22;9117;52.420;20.728;2023-01-05T00:40:40;8.10;1.00
17984;DHT22;9117;52.420;20.728;2023-01-05T00:43:08;8.10;1.00
17984;DHT22;9117;52.420;20.728;2023-01-05T00:45:37;8.20;1.00
17984;DHT22;9117;52.420;20.728;2023-01-05T00:48:05;8.20;1.00
17984;DHT22;9117;52.420;20.728;2023-01-05T00:50:33;8.20;1.00
17984;DHT22;9117;52.420;20.728;2023-01-05T00:53:03;8.10;1.00
17984;DHT22;9117;52.420;20.728;2023-01-05T00:55:31;8.00;1.00
17984;DHT22;9117;52.420;20.728;2023-01-05T00:57:59;8.00;1.00
17984;DHT22;9117;52.420;20.728;2023-01-05T01:00:28;8.00;1.00
17984;DHT22;9117;52.420;20.728;2023-01-05T01:02:56;8.00;1.00
17984;DHT22;9117;52.420;20.728;2023-01-05T01:05:24;8.00;1.00
17984;DHT22;9117;52.420;20.728;2023-01-05T01:07:52;8.00;1.00
17984;DHT22;9117;52.420;20.728;2023-01-05T01:10:22;8.00;1.00
17984;DHT22;9117;52.420;20.728;2023-01-05T01:12:52;8.10;1.00
17984;DHT22;9117;52.420;20.728;2023-01-05T01:15:20;8.10;1.00
17984;DHT22;9117;52.420;20.728;2023-01-05T01:17:48;8.00;1.00
17984;DHT22;9117;52.420;20.728;2023-01-05T01:20:17;7.80;1.00
17984;DHT22;9117;52.420;20.728;2023-01-05T01:22:46;7.70;1.00
17984;DHT22;9117;52.420;20.728;2023-01-05T01:25:14;7.70;99.90
17984;DHT22;9117;52.420;20.728;2023-01-05T01:27:43;7.70;99.90
17984;DHT22;9117;52.420;20.728;2023-01-05T01:30:12;7.60;99.90
17984;DHT22;9117;52.420;20.728;2023-01-05T01:32:40;7.60;99.90
17984;DHT22;9117;52.420;20.728;2023-01-05T01:35:08;7.60;99.90
17984;DHT22;9117;52.420;20.728;2023-01-05T01:37:37;7.60;99.90
17984;DHT22;9117;52.420;20.728;2023-01-05T01:40:06;7.60;99.90
17984;DHT22;9117;52.420;20.728;2023-01-05T01:42:34;7.60;99.90
17984;DHT22;9117;52.420;20.728;2023-01-05T01:45:14;7.60;99.90
17984;DHT22;9117;52.420;20.728;2023-01-05T01:47:48;7.60;99.90
17984;DHT22;9117;52.420;20.728;2023-01-05T01:50:19;7.60;99.90
17984;DHT22;9117;52.420;20.728;2023-01-05T01:52:50;7.60;99.90
17984;DHT22;9117;52.420;20.728;2023-01-05T01:55:21;7.60;99.90
17984;DHT22;9117;52.420;20.728;2023-01-05T01:57:49;7.60;99.90
17984;DHT22;9117;52.420;20.728;2023-01-05T02:00:21;7.60;99.90
17984;DHT22;9117;52.420;20.728;2023-01-05T02:02:52;7.60;99.90
17984;DHT22;9117;52.420;20.728;2023-01-05T02:05:23;7.60;99.90
17984;DHT22;9117;52.420;20.728;2023-01-05T02:07:52;7.60;99.90
17984;DHT22;9117;52.420;20.728;2023-01-05T02:10:34;7.60;99.90
17984;DHT22;9117;52.420;20.728;2023-01-05T02:13:12;7.60;99.90
17984;DHT22;9117;52.420;20.728;2023-01-05T02:15:51;7.60;99.90
17984;DHT22;9117;52.420;20.728;2023-01-05T02:18:38;7.60;99.90
17984;DHT22;9117;52.420;20.728;2023-01-05T02:21:17;7.60;99.90
17984;DHT22;9117;52.420;20.728;2023-01-05T02:24:11;7.60;99.90
17984;DHT22;9117;52.420;20.728;2023-01-05T02:27:25;7.70;99.90
17984;DHT22;9117;52.420;20.728;2023-01-05T02:33:21;7.90;22.80
17984;DHT22;9117;52.420;20.728;2023-01-05T02:35:56;7.90;1.00
17984;DHT22;9117;52.420;20.728;2023-01-05T02:38:32;7.90;1.00
17984;DHT22;9117;52.420;20.728;2023-01-05T02:41:06;7.90;1.00
17984;DHT22;9117;52.420;20.728;2023-01-05T02:43:37;7.90;1.00
17984;DHT22;9117;52.420;20.728;2023-01-05T02:46:05;8.00;1.00
17984;DHT22;9117;52.420;20.728;2023-01-05T02:48:35;8.00;1.00
17984;DHT22;9117;52.420;20.728;2023-01-05T02:51:06;8.00;1.00
17984;DHT22;9117;52.420;20.728;2023-01-05T02:53:38;8.10;1.00
17984;DHT22;9117;52.420;20.728;2023-01-05T02:56:10;8.10;1.00
17984;DHT22;9117;52.420;20.728;2023-01-05T02:58:43;8.10;1.00
17984;DHT22;9117;52.420;20.728;2023-01-05T03:01:14;8.20;1.00
17984;DHT22;9117;52.420;20.728;2023-01-05T03:03:48;8.20;1.00
17984;DHT22;9117;52.420;20.728;2023-01-05T03:06:23;8.20;1.00
17984;DHT22;9117;52.420;20.728;2023-01-05T03:08:56;8.20;1.00
17984;DHT22;9117;52.420;20.728;2023-01-05T03:11:31;8.30;1.00
17984;DHT22;9117;52.420;20.728;2023-01-05T03:14:21;8.30;1.00
17984;DHT22;9117;52.420;20.728;2023-01-05T03:16:52;8.20;1.00
17984;DHT22;9117;52.420;20.728;2023-01-05T03:19:24;8.20;1.00
17984;DHT22;9117;52.420;20.728;2023-01-05T03:22:10;8.20;1.00
17984;DHT22;9117;52.420;20.728;2023-01-05T03:24:57;8.20;1.00
17984;DHT22;9117;52.420;20.728;2023-01-05T03:27:44;8.20;1.00
17984;DHT22;9117;52.420;20.728;2023-01-05T03:30:39;8.20;1.00
17984;DHT22;9117;52.420;20.728;2023-01-05T03:33:34;8.30;1.00
17984;DHT22;9117;52.420;20.728;2023-01-05T03:36:26;8.30;1.00
17984;DHT22;9117;52.420;20.728;2023-01-05T03:38:57;8.30;1.00
17984;DHT22;9117;52.420;20.728;2023-01-05T03:41:26;8.30;1.00
17984;DHT22;9117;52.420;20.728;2023-01-05T03:43:55;8.30;1.00
17984;DHT22;9117;52.420;20.728;2023-01-05T03:46:23;8.20;1.00
17984;DHT22;9117;52.420;20.728;2023-01-05T03:48:51;8.20;1.00
17984;DHT22;9117;52.420;20.728;2023-01-05T03:51:21;8.10;1.00
17984;DHT22;9117;52.420;20.728;2023-01-05T03:53:49;8.10;99.90
17984;DHT22;9117;52.420;20.728;2023-01-05T03:56:17;8.10;99.90
17984;DHT22;9117;52.420;20.728;2023-01-05T03:58:45;8.10;99.90
17984;DHT22;9117;52.420;20.728;2023-01-05T04:01:14;8.10;99.90
17984;DHT22;9117;52.420;20.728;2023-01-05T04:03:42;8.10;99.90
17984;DHT22;9117;52.420;20.728;2023-01-05T04:06:10;8.20;99.90
17984;DHT22;9117;52.420;20.728;2023-01-05T04:08:40;8.10;99.90
17984;DHT22;9117;52.420;20.728;2023-01-05T04:11:12;8.10;99.20
17984;DHT22;9117;52.420;20.728;2023-01-05T04:13:41;8.10;99.90
17984;DHT22;9117;52.420;20.728;2023-01-05T04:16:09;8.10;23.00
17984;DHT22;9117;52.420;20.728;2023-01-05T04:18:37;8.10;16.50
17984;DHT22;9117;52.420;20.728;2023-01-05T04:21:06;8.10;1.00
17984;DHT22;9117;52.420;20.728;2023-01-05T04:23:34;8.10;1.00
17984;DHT22;9117;52.420;20.728;2023-01-05T04:26:04;8.10;1.00
17984;DHT22;9117;52.420;20.728;2023-01-05T04:28:33;8.10;1.00
17984;DHT22;9117;52.420;20.728;2023-01-05T04:31:01;8.10;1.00
17984;DHT22;9117;52.420;20.728;2023-01-05T04:33:29;8.10;1.00
17984;DHT22;9117;52.420;20.728;2023-01-05T04:35:58;8.10;1.00
17984;DHT22;9117;52.420;20.728;2023-01-05T04:38:26;8.00;1.00
17984;DHT22;9117;52.420;20.728;2023-01-05T04:40:54;8.00;1.00
17984;DHT22;9117;52.420;20.728;2023-01-05T04:43:23;8.10;1.00
17984;DHT22;9117;52.420;20.728;2023-01-05T04:45:52;8.10;1.00
17984;DHT22;9117;52.420;20.728;2023-01-05T04:48:20;8.00;1.00
17984;DHT22;9117;52.420;20.728;2023-01-05T04:50:51;8.00;1.00
17984;DHT22;9117;52.420;20.728;2023-01-05T04:53:20;8.00;1.00
17984;DHT22;9117;52.420;20.728;2023-01-05T04:55:49;8.00;1.00
17984;DHT22;9117;52.420;20.728;2023-01-05T04:58:17;8.00;99.90
17984;DHT22;9117;52.420;20.728;2023-01-05T05:00:47;8.00;1.00
17984;DHT22;9117;52.420;20.728;2023-01-05T05:03:16;8.10;1.00
17984;DHT22;9117;52.420;20.728;2023-01-05T05:05:44;8.10;94.10
17984;DHT22;9117;52.420;20.728;2023-01-05T05:08:12;8.10;99.90
17984;DHT22;9117;52.420;20.728;2023-01-05T05:10:41;8.20;1.00
17984;DHT22;9117;52.420;20.728;2023-01-05T05:13:09;8.30;1.00
17984;DHT22;9117;52.420;20.728;2023-01-05T05:15:37;8.20;1.00
17984;DHT22;9117;52.420;20.728;2023-01-05T05:18:07;8.20;1.00
17984;DHT22;9117;52.420;20.728;2023-01-05T05:20:36;8.20;1.00
17984;DHT22;9117;52.420;20.728;2023-01-05T05:23:04;8.20;1.00
17984;DHT22;9117;52.420;20.728;2023-01-05T05:25:33;8.20;99.90
17984;DHT22;9117;52.420;20.728;2023-01-05T05:28:01;8.20;1.00
17984;DHT22;9117;52.420;20.728;2023-01-05T05:30:29;8.20;99.90
17984;DHT22;9117;52.420;20.728;2023-01-05T05:32:58;8.20;1.00
17984;DHT22;9117;52.420;20.728;2023-01-05T05:35:27;8.20;99.90
17984;DHT22;9117;52.420;20.728;2023-01-05T05:37:55;8.20;1.00
17984;DHT22;9117;52.420;20.728;2023-01-05T05:40:24;8.20;99.90
17984;DHT22;9117;52.420;20.728;2023-01-05T05:42:52;8.20;1.00
17984;DHT22;9117;52.420;20.728;2023-01-05T05:45:20;8.20;1.00
17984;DHT22;9117;52.420;20.728;2023-01-05T05:47:48;8.20;99.90
17984;DHT22;9117;52.420;20.728;2023-01-05T05:50:17;8.20;99.90
17984;DHT22;9117;52.420;20.728;2023-01-05T05:52:46;8.20;99.90
17984;DHT22;9117;52.420;20.728;2023-01-05T05:55:15;8.20;1.00
17984;DHT22;9117;52.420;20.728;2023-01-05T05:57:43;8.10;1.00
17984;DHT22;9117;52.420;20.728;2023-01-05T06:00:12;8.20;99.90
17984;DHT22;9117;52.420;20.728;2023-01-05T06:02:41;8.20;99.90
17984;DHT22;9117;52.420;20.728;2023-01-05T06:05:09;8.10;99.90
17984;DHT22;9117;52.420;20.728;2023-01-05T06:07:37;8.20;1.00
17984;DHT22;9117;52.420;20.728;2023-01-05T06:10:08;8.20;99.90
17984;DHT22;9117;52.420;20.728;2023-01-05T06:12:36;8.20;1.00
17984;DHT22;9117;52.420;20.728;2023-01-05T06:15:06;8.20;99.90
17984;DHT22;9117;52.420;20.728;2023-01-05T06:17:34;8.10;1.00
17984;DHT22;9117;52.420;20.728;2023-01-05T06:20:03;8.20;99.90
17984;DHT22;9117;52.420;20.728;2023-01-05T06:22:31;8.20;1.00
17984;DHT22;9117;52.420;20.728;2023-01-05T06:24:59;8.10;1.00
17984;DHT22;9117;52.420;20.728;2023-01-05T06:27:29;8.10;99.90
17984;DHT22;9117;52.420;20.728;2023-01-05T06:29:57;8.10;1.00
17984;DHT22;9117;52.420;20.728;2023-01-05T06:32:25;8.10;1.00
17984;DHT22;9117;52.420;20.728;2023-01-05T06:34:53;8.10;99.90
17984;DHT22;9117;52.420;20.728;2023-01-05T06:37:21;8.00;99.90
17984;DHT22;9117;52.420;20.728;2023-01-05T06:39:50;8.10;40.40
17984;DHT22;9117;52.420;20.728;2023-01-05T06:42:18;8.00;1.00
17984;DHT22;9117;52.420;20.728;2023-01-05T06:44:51;8.00;99.90
17984;DHT22;9117;52.420;20.728;2023-01-05T06:47:19;8.00;99.90
17984;DHT22;9117;52.420;20.728;2023-01-05T06:49:47;8.00;99.90
17984;DHT22;9117;52.420;20.728;2023-01-05T06:52:15;8.00;99.90
17984;DHT22;9117;52.420;20.728;2023-01-05T06:54:44;8.00;99.90
17984;DHT22;9117;52.420;20.728;2023-01-05T06:57:12;8.00;99.90
17984;DHT22;9117;52.420;20.728;2023-01-05T06:59:41;7.90;99.90
17984;DHT22;9117;52.420;20.728;2023-01-05T07:02:13;7.90;99.90
17984;DHT22;9117;52.420;20.728;2023-01-05T07:04:42;7.90;99.90
17984;DHT22;9117;52.420;20.728;2023-01-05T07:07:11;7.90;99.90
17984;DHT22;9117;52.420;20.728;2023-01-05T07:09:40;8.00;28.30
17984;DHT22;9117;52.420;20.728;2023-01-05T07:12:08;8.00;1.00
17984;DHT22;9117;52.420;20.728;2023-01-05T07:14:37;8.00;99.90
17984;DHT22;9117;52.420;20.728;2023-01-05T07:17:05;8.00;1.00
17984;DHT22;9117;52.420;20.728;2023-01-05T07:19:35;8.00;1.00
17984;DHT22;9117;52.420;20.728;2023-01-05T07:22:03;8.10;1.00
17984;DHT22;9117;52.420;20.728;2023-01-05T07:24:31;8.10;1.00
17984;DHT22;9117;52.420;20.728;2023-01-05T07:26:59;8.10;1.00
17984;DHT22;9117;52.420;20.728;2023-01-05T07:29:35;8.10;1.00
17984;DHT22;9117;52.420;20.728;2023-01-05T07:32:04;8.00;1.00
17984;DHT22;9117;52.420;20.728;2023-01-05T07:34:32;8.10;99.90
17984;DHT22;9117;52.420;20.728;2023-01-05T07:37:02;8.10;9.20
17984;DHT22;9117;52.420;20.728;2023-01-05T07:39:30;8.10;99.90
17984;DHT22;9117;52.420;20.728;2023-01-05T07:41:58;8.10;1.00
17984;DHT22;9117;52.420;20.728;2023-01-05T07:44:26;8.10;3.50
17984;DHT22;9117;52.420;20.728;2023-01-05T07:46:55;8.20;1.00
17984;DHT22;9117;52.420;20.728;2023-01-05T07:49:24;8.20;99.90
17984;DHT22;9117;52.420;20.728;2023-01-05T07:51:52;8.30;1.00
17984;DHT22;9117;52.420;20.728;2023-01-05T07:54:22;8.30;1.00
17984;DHT22;9117;52.420;20.728;2023-01-05T07:56:50;8.30;15.10
17984;DHT22;9117;52.420;20.728;2023-01-05T07:59:18;8.30;99.90
17984;DHT22;9117;52.420;20.728;2023-01-05T08:01:47;8.30;1.00
17984;DHT22;9117;52.420;20.728;2023-01-05T08:04:15;8.30;1.00
17984;DHT22;9117;52.420;20.728;2023-01-05T08:06:44;8.30;99.90
17984;DHT22;9117;52.420;20.728;2023-01-05T08:09:12;8.40;99.90
17984;DHT22;9117;52.420;20.728;2023-01-05T08:12:01;8.40;1.00
17984;DHT22;9117;52.420;20.728;2023-01-05T08:14:29;8.40;99.90
17984;DHT22;9117;52.420;20.728;2023-01-05T08:16:58;8.30;1.00
17984;DHT22;9117;52.420;20.728;2023-01-05T08:19:26;8.30;1.00
17984;DHT22;9117;52.420;20.728;2023-01-05T08:21:54;8.20;99.90
17984;DHT22;9117;52.420;20.728;2023-01-05T08:24:22;8.20;99.90
17984;DHT22;9117;52.420;20.728;2023-01-05T08:26:50;8.20;99.90
17984;DHT22;9117;52.420;20.728;2023-01-05T08:29:20;8.10;91.20
17984;DHT22;9117;52.420;20.728;2023-01-05T08:31:48;8.00;1.00
17984;DHT22;9117;52.420;20.728;2023-01-05T08:34:17;8.00;1.00
17984;DHT22;9117;52.420;20.728;2023-01-05T08:36:45;7.90;1.00
17984;DHT22;9117;52.420;20.728;2023-01-05T08:39:13;7.90;1.00
17984;DHT22;9117;52.420;20.728;2023-01-05T08:41:41;7.90;99.90
17984;DHT22;9117;52.420;20.728;2023-01-05T08:44:12;7.90;99.90
17984;DHT22;9117;52.420;20.728;2023-01-05T08:46:42;7.90;99.90
17984;DHT22;9117;52.420;20.728;2023-01-05T08:49:10;7.90;77.80
17984;DHT22;9117;52.420;20.728;2023-01-05T08:51:38;8.00;1.00
17984;DHT22;9117;52.420;20.728;2023-01-05T08:54:07;8.00;1.00
17984;DHT22;9117;52.420;20.728;2023-01-05T08:56:35;7.90;1.00
17984;DHT22;9117;52.420;20.728;2023-01-05T08:59:05;7.90;1.00
17984;DHT22;9117;52.420;20.728;2023-01-05T09:01:34;7.90;1.00
17984;DHT22;9117;52.420;20.728;2023-01-05T09:04:05;7.90;1.00
17984;DHT22;9117;52.420;20.728;2023-01-05T09:06:34;7.90;1.00
17984;DHT22;9117;52.420;20.728;2023-01-05T09:09:02;8.00;1.00
17984;DHT22;9117;52.420;20.728;2023-01-05T09:11:32;8.00;1.00
17984;DHT22;9117;52.420;20.728;2023-01-05T09:14:01;7.90;1.00
17984;DHT22;9117;52.420;20.728;2023-01-05T09:16:32;7.90;1.00
17984;DHT22;9117;52.420;20.728;2023-01-05T09:19:22;7.80;1.00
17984;DHT22;9117;52.420;20.728;2023-01-05T09:21:50;7.80;1.00
17984;DHT22;9117;52.420;20.728;2023-01-05T09:24:19;7.80;1.00
17984;DHT22;9117;52.420;20.728;2023-01-05T09:26:47;7.80;1.00
17984;DHT22;9117;52.420;20.728;2023-01-05T09:29:16;7.80;1.00
17984;DHT22;9117;52.420;20.728;2023-01-05T09:31:44;7.80;1.00
17984;DHT22;9117;52.420;20.728;2023-01-05T09:34:12;7.80;1.00
17984;DHT22;9117;52.420;20.728;2023-01-05T09:36:42;7.70;1.00
17984;DHT22;9117;52.420;20.728;2023-01-05T09:39:10;7.80;1.00
17984;DHT22;9117;52.420;20.728;2023-01-05T09:41:42;7.80;1.00
17984;DHT22;9117;52.420;20.728;2023-01-05T09:44:15;7.80;1.00
17984;DHT22;9117;52.420;20.728;2023-01-05T09:46:48;7.80;1.00
17984;DHT22;9117;52.420;20.728;2023-01-05T09:49:21;7.80;1.00
17984;DHT22;9117;52.420;20.728;2023-01-05T09:51:56;7.80;1.00
17984;DHT22;9117;52.420;20.728;2023-01-05T09:54:27;7.90;1.00
17984;DHT22;9117;52.420;20.728;2023-01-05T09:56:57;7.90;1.00
17984;DHT22;9117;52.420;20.728;2023-01-05T09:59:36;7.90;1.00
17984;DHT22;9117;52.420;20.728;2023-01-05T10:02:20;7.90;1.00
17984;DHT22;9117;52.420;20.728;2023-01-05T10:04:53;7.90;1.00
17984;DHT22;9117;52.420;20.728;2023-01-05T10:07:33;7.90;1.00
17984;DHT22;9117;52.420;20.728;2023-01-05T10:10:11;7.80;1.00
17984;DHT22;9117;52.420;20.728;2023-01-05T10:12:43;8.00;1.00
17984;DHT22;9117;52.420;20.728;2023-01-05T10:15:33;7.90;1.00
17984;DHT22;9117;52.420;20.728;2023-01-05T10:18:09;8.00;1.00
17984;DHT22;9117;52.420;20.728;2023-01-05T10:20:55;8.00;1.00
17984;DHT22;9117;52.420;20.728;2023-01-05T10:23:39;8.10;1.00
17984;DHT22;9117;52.420;20.728;2023-01-05T10:26:16;8.10;1.00
17984;DHT22;9117;52.420;20.728;2023-01-05T10:28:52;8.10;1.00
17984;DHT22;9117;52.420;20.728;2023-01-05T10:31:23;8.10;1.00
17984;DHT22;9117;52.420;20.728;2023-01-05T10:33:59;8.10;1.00
17984;DHT22;9117;52.420;20.728;2023-01-05T10:39:57;8.10;1.00
17984;DHT22;9117;52.420;20.728;2023-01-05T10:42:38;8.10;1.00
17984;DHT22;9117;52.420;20.728;2023-01-05T10:45:10;8.00;1.00
17984;DHT22;9117;52.420;20.728;2023-01-05T10:47:40;8.00;1.00
17984;DHT22;9117;52.420;20.728;2023-01-05T10:50:34;8.00;1.00
17984;DHT22;9117;52.420;20.728;2023-01-05T10:53:12;8.00;1.00
17984;DHT22;9117;52.420;20.728;2023-01-05T10:55:49;8.00;1.00
17984;DHT22;9117;52.420;20.728;2023-01-05T10:58:22;8.00;1.00
17984;DHT22;9117;52.420;20.728;2023-01-05T11:00:54;8.20;1.00
17984;DHT22;9117;52.420;20.728;2023-01-05T11:03:28;8.20;1.00
17984;DHT22;9117;52.420;20.728;2023-01-05T11:06:21;8.20;1.00
17984;DHT22;9117;52.420;20.728;2023-01-05T11:08:50;8.20;1.00
17984;DHT22;9117;52.420;20.728;2023-01-05T11:11:22;8.20;1.00
17984;DHT22;9117;52.420;20.728;2023-01-05T11:13:53;8.30;1.00
17984;DHT22;9117;52.420;20.728;2023-01-05T11:16:24;8.20;1.00
17984;DHT22;9117;52.420;20.728;2023-01-05T11:18:54;8.20;1.00
17984;DHT22;9117;52.420;20.728;2023-01-05T11:21:25;8.30;1.00
17984;DHT22;9117;52.420;20.728;2023-01-05T11:23:56;8.30;1.00
17984;DHT22;9117;52.420;20.728;2023-01-05T11:26:31;8.30;1.00
17984;DHT22;9117;52.420;20.728;2023-01-05T11:29:13;8.30;1.00
17984;DHT22;9117;52.420;20.728;2023-01-05T11:31:48;8.40;1.00
17984;DHT22;9117;52.420;20.728;2023-01-05T11:34:28;8.40;1.00
17984;DHT22;9117;52.420;20.728;2023-01-05T11:36:58;8.30;1.00
17984;DHT22;9117;52.420;20.728;2023-01-05T11:39:38;8.40;1.00
17984;DHT22;9117;52.420;20.728;2023-01-05T11:42:14;8.40;1.00
17984;DHT22;9117;52.420;20.728;2023-01-05T11:44:53;8.40;1.00
17984;DHT22;9117;52.420;20.728;2023-01-05T11:47:26;8.30;1.00
17984;DHT22;9117;52.420;20.728;2023-01-05T11:50:04;8.30;1.00
17984;DHT22;9117;52.420;20.728;2023-01-05T11:52:37;8.40;1.00
17984;DHT22;9117;52.420;20.728;2023-01-05T11:55:22;8.30;1.00
17984;DHT22;9117;52.420;20.728;2023-01-05T11:58:09;8.30;1.00
17984;DHT22;9117;52.420;20.728;2023-01-05T12:00:48;8.30;1.00
17984;DHT22;9117;52.420;20.728;2023-01-05T12:03:33;8.30;1.00
17984;DHT22;9117;52.420;20.728;2023-01-05T12:06:09;8.30;1.00
17984;DHT22;9117;52.420;20.728;2023-01-05T12:08:44;8.30;1.00
17984;DHT22;9117;52.420;20.728;2023-01-05T12:11:17;8.30;1.00
17984;DHT22;9117;52.420;20.728;2023-01-05T12:14:00;8.30;1.00
17984;DHT22;9117;52.420;20.728;2023-01-05T12:16:44;8.30;1.00
17984;DHT22;9117;52.420;20.728;2023-01-05T12:19:44;8.30;1.00
17984;DHT22;9117;52.420;20.728;2023-01-05T12:22:34;8.20;1.00
17984;DHT22;9117;52.420;20.728;2023-01-05T12:25:26;8.20;1.00
17984;DHT22;9117;52.420;20.728;2023-01-05T12:28:20;8.20;1.00
17984;DHT22;9117;52.420;20.728;2023-01-05T12:31:21;8.20;1.00
17984;DHT22;9117;52.420;20.728;2023-01-05T12:37:25;8.20;1.00
17984;DHT22;9117;52.420;20.728;2023-01-05T12:40:12;8.10;1.00
17984;DHT22;9117;52.420;20.728;2023-01-05T12:42:56;8.10;1.00
17984;DHT22;9117;52.420;20.728;2023-01-05T12:48:29;8.00;1.00
17984;DHT22;9117;52.420;20.728;2023-01-05T12:51:06;8.00;1.00
17984;DHT22;9117;52.420;20.728;2023-01-05T12:53:44;7.90;1.00
17984;DHT22;9117;52.420;20.728;2023-01-05T12:56:22;7.80;1.00
17984;DHT22;9117;52.420;20.728;2023-01-05T12:59:09;7.80;1.00
17984;DHT22;9117;52.420;20.728;2023-01-05T13:01:43;7.80;1.00
17984;DHT22;9117;52.420;20.728;2023-01-05T13:07:19;7.80;1.00
17984;DHT22;9117;52.420;20.728;2023-01-05T13:09:55;7.70;1.00
17984;DHT22;9117;52.420;20.728;2023-01-05T13:12:30;7.70;1.00
17984;DHT22;9117;52.420;20.728;2023-01-05T13:15:14;7.60;1.00
17984;DHT22;9117;52.420;20.728;2023-01-05T13:17:46;7.60;1.00
17984;DHT22;9117;52.420;20.728;2023-01-05T13:20:32;7.60;1.00
17984;DHT22;9117;52.420;20.728;2023-01-05T13:23:05;7.60;1.00
17984;DHT22;9117;52.420;20.728;2023-01-05T13:25:41;7.60;1.00
17984;DHT22;9117;52.420;20.728;2023-01-05T13:28:18;7.40;1.00
17984;DHT22;9117;52.420;20.728;2023-01-05T13:30:58;7.50;1.00
17984;DHT22;9117;52.420;20.728;2023-01-05T13:33:40;7.40;1.00
17984;DHT22;9117;52.420;20.728;2023-01-05T13:36:23;7.30;1.00
17984;DHT22;9117;52.420;20.728;2023-01-05T13:39:32;7.30;1.00
17984;DHT22;9117;52.420;20.728;2023-01-05T13:42:29;7.40;1.00
17984;DHT22;9117;52.420;20.728;2023-01-05T13:45:26;7.30;1.00
17984;DHT22;9117;52.420;20.728;2023-01-05T13:48:39;7.30;1.00
17984;DHT22;9117;52.420;20.728;2023-01-05T13:51:57;7.30;1.00
17984;DHT22;9117;52.420;20.728;2023-01-05T13:54:36;7.30;1.00
17984;DHT22;9117;52.420;20.728;2023-01-05T13:57:21;7.40;1.00
17984;DHT22;9117;52.420;20.728;2023-01-05T13:59:51;7.30;1.00
17984;DHT22;9117;52.420;20.728;2023-01-05T14:02:34;7.30;1.00
17984;DHT22;9117;52.420;20.728;2023-01-05T14:05:15;7.40;1.00
17984;DHT22;9117;52.420;20.728;2023-01-05T14:07:51;7.30;1.00
17984;DHT22;9117;52.420;20.728;2023-01-05T14:10:23;7.30;1.00
17984;DHT22;9117;52.420;20.728;2023-01-05T14:12:52;7.30;1.00
17984;DHT22;9117;52.420;20.728;2023-01-05T14:15:38;7.40;1.00
17984;DHT22;9117;52.420;20.728;2023-01-05T14:18:08;7.30;1.00
17984;DHT22;9117;52.420;20.728;2023-01-05T14:20:44;7.30;1.00
17984;DHT22;9117;52.420;20.728;2023-01-05T14:23:55;7.30;1.00
17984;DHT22;9117;52.420;20.728;2023-01-05T14:32:37;7.20;1.00
17984;DHT22;9117;52.420;20.728;2023-01-05T14:35:19;7.20;1.00
17984;DHT22;9117;52.420;20.728;2023-01-05T14:37:54;7.10;1.00
17984;DHT22;9117;52.420;20.728;2023-01-05T14:40:32;7.20;1.00
17984;DHT22;9117;52.420;20.728;2023-01-05T14:43:05;7.20;1.00
17984;DHT22;9117;52.420;20.728;2023-01-05T14:45:35;7.20;1.00
17984;DHT22;9117;52.420;20.728;2023-01-05T14:48:26;7.20;1.00
17984;DHT22;9117;52.420;20.728;2023-01-05T14:51:19;7.10;1.00
17984;DHT22;9117;52.420;20.728;2023-01-05T14:53:51;7.10;1.00
17984;DHT22;9117;52.420;20.728;2023-01-05T14:56:23;7.10;1.00
17984;DHT22;9117;52.420;20.728;2023-01-05T14:59:00;7.20;1.00
17984;DHT22;9117;52.420;20.728;2023-01-05T15:01:36;7.10;1.00
17984;DHT22;9117;52.420;20.728;2023-01-05T15:04:14;7.10;1.00
17984;DHT22;9117;52.420;20.728;2023-01-05T15:07:04;7.10;1.00
17984;DHT22;9117;52.420;20.728;2023-01-05T15:09:43;7.20;1.00
17984;DHT22;9117;52.420;20.728;2023-01-05T15:12:31;7.20;1.00
17984;DHT22;9117;52.420;20.728;2023-01-05T15:15:12;7.20;1.00
17984;DHT22;9117;52.420;20.728;2023-01-05T15:21:18;7.10;1.00
17984;DHT22;9117;52.420;20.728;2023-01-05T15:24:10;7.10;1.00
17984;DHT22;9117;52.420;20.728;2023-01-05T15:27:01;7.80;1.00
17984;DHT22;9117;52.420;20.728;2023-01-05T15:30:02;7.00;1.00
17984;DHT22;9117;52.420;20.728;2023-01-05T15:32:39;6.90;1.00
17984;DHT22;9117;52.420;20.728;2023-01-05T15:35:13;6.80;1.00
17984;DHT22;9117;52.420;20.728;2023-01-05T15:37:42;6.80;1.00
17984;DHT22;9117;52.420;20.728;2023-01-05T15:40:26;6.80;1.00
17984;DHT22;9117;52.420;20.728;2023-01-05T15:42:57;6.80;1.00
17984;DHT22;9117;52.420;20.728;2023-01-05T15:45:29;6.70;1.00
17984;DHT22;9117;52.420;20.728;2023-01-05T15:48:00;6.70;1.00
17984;DHT22;9117;52.420;20.728;2023-01-05T15:50:42;6.70;1.00
17984;DHT22;9117;52.420;20.728;2023-01-05T15:53:22;6.70;1.00
17984;DHT22;9117;52.420;20.728;2023-01-05T15:55:51;6.80;1.00
17984;DHT22;9117;52.420;20.728;2023-01-05T15:58:20;6.70;1.00
17984;DHT22;9117;52.420;20.728;2023-01-05T16:01:02;6.80;1.00
17984;DHT22;9117;52.420;20.728;2023-01-05T16:03:32;6.80;1.00
17984;DHT22;9117;52.420;20.728;2023-01-05T16:06:18;6.70;1.00
17984;DHT22;9117;52.420;20.728;2023-01-05T16:08:50;6.80;1.00
17984;DHT22;9117;52.420;20.728;2023-01-05T16:11:25;6.70;1.00
17984;DHT22;9117;52.420;20.728;2023-01-05T16:14:06;6.70;1.00
17984;DHT22;9117;52.420;20.728;2023-01-05T16:16:43;6.70;1.00
17984;DHT22;9117;52.420;20.728;2023-01-05T16:19:24;6.60;1.00
17984;DHT22;9117;52.420;20.728;2023-01-05T16:21:57;6.50;1.00
17984;DHT22;9117;52.420;20.728;2023-01-05T16:24:29;6.40;1.00
17984;DHT22;9117;52.420;20.728;2023-01-05T16:26:59;6.30;1.00
17984;DHT22;9117;52.420;20.728;2023-01-05T16:29:34;6.30;1.00
17984;DHT22;9117;52.420;20.728;2023-01-05T16:32:28;6.20;1.00
17984;DHT22;9117;52.420;20.728;2023-01-05T16:35:21;6.20;1.00
17984;DHT22;9117;52.420;20.728;2023-01-05T16:41:06;6.10;1.00
17984;DHT22;9117;52.420;20.728;2023-01-05T16:43:40;6.10;1.00
17984;DHT22;9117;52.420;20.728;2023-01-05T16:46:42;6.00;1.00
17984;DHT22;9117;52.420;20.728;2023-01-05T16:49:33;6.00;1.00
17984;DHT22;9117;52.420;20.728;2023-01-05T16:52:20;6.00;1.00
17984;DHT22;9117;52.420;20.728;2023-01-05T16:55:12;6.00;1.00
17984;DHT22;9117;52.420;20.728;2023-01-05T16:57:49;6.00;1.00
17984;DHT22;9117;52.420;20.728;2023-01-05T17:00:36;6.00;1.00
17984;DHT22;9117;52.420;20.728;2023-01-05T17:03:26;5.90;1.00
17984;DHT22;9117;52.420;20.728;2023-01-05T17:05:59;5.90;1.00
17984;DHT22;9117;52.420;20.728;2023-01-05T17:08:28;5.80;1.00
17984;DHT22;9117;52.420;20.728;2023-01-05T17:10:59;5.70;1.00
17984;DHT22;9117;52.420;20.728;2023-01-05T17:13:34;5.60;1.00